Terminal Aerodrome Forecast
Issued by NWS

Home | Current Version | Previous Version | Text Only | Print | Product List | Glossary Off
Versions: 1 2 3 4 5 6 7 8 9 10 11 12 13 14 15 16 17 18 19 20 21 22 23 24

964
FTUS43 KBIS 051139
TAFMOT
TAF
KMOT 051139Z 0512/0612 13006KT P6SM VCSH OVC060
     FM051500 17007KT P6SM VCSH OVC010
     FM051900 31012G20KT 2SM BLSN VCSH OVC008
     FM060300 31025G36KT 2SM -SN BLSN OVC010
     FM060900 30021G31KT 3SM BLSN OVC010=

USA.gov is the U.S. government's official web portal to all federal, state and local government web resources and services.